Time;durP1;ratioP1;P1;durP2;ratioP2;P2;SDS_P1;SDS_P2;PMS_P1;PMS_P2;Temp;Humidity;BMP_temperature;BMP_pressure;BME280_temperature;BME280_humidity;BME280_pressure;Samples;Min_cycle;Max_cycle;Signal;HPM_P1;HPM_P2
2023/04/24 00:01:47;;;;;;;14.20;9.63;;;;;;;14.65;59.28;99640.00;5069681;28;20074;-67
2023/04/24 00:04:14;;;;;;;16.35;9.60;;;;;;;14.53;59.59;99625.19;5052338;28;20028;-67
2023/04/24 00:06:42;;;;;;;12.10;9.82;;;;;;;14.59;59.50;99638.84;5051672;28;20032;-67
2023/04/24 00:09:09;;;;;;;14.20;9.93;;;;;;;14.55;59.71;99632.13;5070115;28;20035;-66
2023/04/24 00:11:36;;;;;;;16.42;9.02;;;;;;;14.46;60.13;99622.38;5069637;28;20029;-67
2023/04/24 00:14:01;;;;;;;14.43;9.80;;;;;;;14.49;60.04;99629.28;5069584;28;20068;-66
2023/04/24 00:16:27;;;;;;;12.48;9.93;;;;;;;14.34;59.65;99604.03;5068916;28;20032;-67
2023/04/24 00:18:53;;;;;;;13.88;9.73;;;;;;;14.41;59.77;99623.94;5051502;28;20033;-67
2023/04/24 00:21:19;;;;;;;11.70;9.38;;;;;;;14.25;60.09;99600.56;5069473;28;20037;-66
2023/04/24 00:23:44;;;;;;;11.80;9.65;;;;;;;14.36;60.14;99624.47;5069173;28;20052;-67
2023/04/24 00:26:10;;;;;;;16.35;9.73;;;;;;;14.29;60.11;99618.09;5069622;28;20043;-66
2023/04/24 00:28:35;;;;;;;12.85;9.32;;;;;;;14.33;60.12;99621.25;5069441;28;20020;-66
2023/04/24 00:31:01;;;;;;;13.88;9.57;;;;;;;14.16;60.19;99593.50;5069389;28;20020;-67
2023/04/24 00:33:27;;;;;;;14.13;8.82;;;;;;;14.31;60.14;99621.44;5069172;28;20397;-66
2023/04/24 00:35:52;;;;;;;13.63;8.70;;;;;;;14.33;60.24;99619.41;5069365;28;20021;-66
2023/04/24 00:38:18;;;;;;;14.98;9.52;;;;;;;14.23;60.20;99621.47;5069324;28;20082;-67
2023/04/24 00:40:44;;;;;;;11.45;9.43;;;;;;;14.28;60.79;99629.88;5048040;28;20453;-67
2023/04/24 00:43:09;;;;;;;16.70;10.18;;;;;;;14.28;60.99;99629.88;5068887;28;20170;-66
2023/04/24 00:45:35;;;;;;;15.98;9.95;;;;;;;14.24;61.03;99604.28;5069411;28;20094;-66
2023/04/24 00:48:01;;;;;;;16.77;9.52;;;;;;;14.27;60.43;99622.81;5069629;28;20032;-67
2023/04/24 00:50:28;;;;;;;14.88;9.68;;;;;;;14.20;60.96;99615.56;5069374;28;20055;-67
2023/04/24 00:52:54;;;;;;;14.82;9.75;;;;;;;14.33;61.06;99624.81;5051448;28;20025;-67
2023/04/24 00:55:20;;;;;;;15.57;10.40;;;;;;;14.28;60.94;99626.34;5069405;28;20035;-66
2023/04/24 00:57:47;;;;;;;16.88;10.13;;;;;;;14.25;61.49;99624.81;5069116;28;20035;-66
2023/04/24 01:00:14;;;;;;;12.38;9.15;;;;;;;14.22;61.17;99624.31;5050959;28;20063;-66
2023/04/24 01:02:44;;;;;;;13.30;8.77;;;;;;;14.20;61.46;99620.94;5069060;28;20603;-67
2023/04/24 01:05:14;;;;;;;14.60;9.60;;;;;;;14.17;61.46;99614.06;5068565;28;20027;-66
2023/04/24 01:07:45;;;;;;;10.80;8.95;;;;;;;14.15;61.28;99605.28;5069282;28;20146;-66
2023/04/24 01:10:11;;;;;;;13.40;8.55;;;;;;;14.18;61.27;99625.69;5069290;28;20029;-67
2023/04/24 01:12:37;;;;;;;15.02;10.13;;;;;;;14.16;61.94;99612.38;5068882;28;20055;-66
2023/04/24 01:15:03;;;;;;;15.25;9.05;;;;;;;14.11;62.22;99597.72;5069023;28;20032;-66
2023/04/24 01:17:29;;;;;;;14.88;9.60;;;;;;;14.16;62.56;99603.44;5068705;28;20174;-67
2023/04/24 01:19:57;;;;;;;13.52;9.05;;;;;;;14.19;62.53;99614.69;5068942;28;20119;-67
2023/04/24 01:22:22;;;;;;;10.43;9.32;;;;;;;14.14;62.53;99605.44;5068785;28;20124;-67
2023/04/24 01:24:48;;;;;;;10.75;8.88;;;;;;;14.17;62.88;99614.06;5068849;28;20477;-67
2023/04/24 01:27:14;;;;;;;11.93;8.73;;;;;;;14.12;63.01;99597.53;5066281;28;20389;-68
2023/04/24 01:29:39;;;;;;;10.90;8.48;;;;;;;14.20;62.42;99602.91;5050768;28;20024;-67
2023/04/24 01:32:05;;;;;;;12.68;9.10;;;;;;;14.19;62.23;99587.72;5068890;28;20029;-67
2023/04/24 01:34:31;;;;;;;11.73;8.60;;;;;;;13.96;62.18;99538.28;5068393;28;20042;-67
2023/04/24 01:36:56;;;;;;;11.45;8.30;;;;;;;14.08;62.92;99558.47;5068892;28;20028;-66
2023/04/24 01:39:25;;;;;;;9.85;8.57;;;;;;;14.21;64.42;99574.91;5068837;28;20028;-67
2023/04/24 01:41:52;;;;;;;11.05;8.85;;;;;;;14.20;66.16;99572.41;5068682;28;20025;-67
2023/04/24 01:44:18;;;;;;;12.90;9.52;;;;;;;13.96;66.60;99527.50;5068447;28;20027;-67
2023/04/24 01:46:43;;;;;;;16.00;9.88;;;;;;;14.19;68.77;99558.06;5068525;28;20133;-67
2023/04/24 01:49:09;;;;;;;12.35;9.23;;;;;;;14.17;70.59;99556.56;5068606;28;20048;-66
2023/04/24 01:51:35;;;;;;;13.05;9.77;;;;;;;14.18;73.40;99580.66;5068567;28;20051;-66
2023/04/24 01:54:00;;;;;;;16.85;10.13;;;;;;;14.19;75.32;99582.34;5068686;28;20036;-66
2023/04/24 01:56:29;;;;;;;14.45;10.20;;;;;;;14.13;76.40;99580.38;5049840;28;20028;-66
2023/04/24 01:58:56;;;;;;;16.48;11.57;;;;;;;14.04;77.35;99569.78;5068490;28;20143;-66
2023/04/24 02:01:23;;;;;;;19.45;12.25;;;;;;;13.83;78.37;99534.50;5068399;28;20500;-66
2023/04/24 02:03:49;;;;;;;23.55;13.27;;;;;;;13.98;78.32;99563.22;5068230;28;20385;-66
2023/04/24 02:06:14;;;;;;;24.90;15.15;;;;;;;13.87;77.87;99550.16;5068483;28;20030;-66
2023/04/24 02:08:40;;;;;;;27.85;16.40;;;;;;;13.90;79.01;99562.41;5068239;28;20032;-66
2023/04/24 02:11:05;;;;;;;18.45;13.05;;;;;;;13.81;79.24;99553.53;5068393;28;20032;-66
2023/04/24 02:13:31;;;;;;;16.48;12.13;;;;;;;13.89;78.55;99572.34;5067920;28;20102;-66
2023/04/24 02:15:58;;;;;;;19.83;12.15;;;;;;;13.86;78.98;99570.00;5068452;28;20406;-66
2023/04/24 02:18:24;;;;;;;18.13;12.65;;;;;;;13.85;78.88;99567.47;5068002;28;20027;-66
2023/04/24 02:20:49;;;;;;;17.30;12.00;;;;;;;13.74;79.63;99547.16;5068025;28;20397;-66
2023/04/24 02:23:15;;;;;;;16.95;12.40;;;;;;;13.73;81.36;99561.63;5050028;28;20503;-66
2023/04/24 02:25:40;;;;;;;14.63;11.80;;;;;;;13.75;81.77;99559.59;5068163;28;20039;-66
2023/04/24 02:28:06;;;;;;;13.23;11.40;;;;;;;13.74;82.62;99561.44;5068337;28;20021;-66
2023/04/24 02:30:34;;;;;;;16.92;11.30;;;;;;;13.70;81.74;99552.03;5068213;28;20033;-66
2023/04/24 02:33:00;;;;;;;14.57;11.65;;;;;;;13.69;81.89;99552.22;5067882;28;20024;-66
2023/04/24 02:35:25;;;;;;;15.15;9.95;;;;;;;13.64;81.37;99552.72;5068245;28;20546;-66
2023/04/24 02:37:51;;;;;;;12.15;10.85;;;;;;;13.66;82.49;99545.31;5067755;28;20040;-66
2023/04/24 02:40:16;;;;;;;16.70;10.70;;;;;;;13.70;82.87;99552.03;5067673;28;20045;-66
2023/04/24 02:42:42;;;;;;;13.90;10.35;;;;;;;13.71;80.14;99547.50;5068850;28;20024;-66
2023/04/24 02:45:07;;;;;;;15.10;10.45;;;;;;;13.71;80.41;99545.63;5067649;28;20052;-66
2023/04/24 02:47:33;;;;;;;15.68;10.10;;;;;;;13.74;79.32;99539.06;5066881;28;20036;-66
2023/04/24 02:49:58;;;;;;;14.50;10.02;;;;;;;13.63;79.38;99528.66;5067481;28;20037;-66
2023/04/24 02:52:24;;;;;;;13.27;10.52;;;;;;;13.71;79.27;99542.13;5068416;28;20037;-66
2023/04/24 02:54:49;;;;;;;13.32;10.20;;;;;;;13.58;80.66;99525.66;5049648;28;20469;-66
2023/04/24 02:57:15;;;;;;;11.43;9.73;;;;;;;13.63;80.69;99539.41;5068057;28;20037;-66
2023/04/24 02:59:40;;;;;;;14.48;10.88;;;;;;;13.61;81.11;99538.78;5067293;28;20063;-66
2023/04/24 03:02:06;;;;;;;12.32;9.82;;;;;;;13.58;80.50;99529.16;5067577;28;20032;-66
2023/04/24 03:04:31;;;;;;;14.82;9.68;;;;;;;13.58;80.02;99529.16;5067588;28;20067;-66
2023/04/24 03:06:57;;;;;;;14.45;8.95;;;;;;;13.54;80.16;99518.91;5068114;28;20499;-66
2023/04/24 03:09:23;;;;;;;12.55;9.52;;;;;;;13.51;80.83;99524.63;5071329;28;20781;-66
2023/04/24 03:11:49;;;;;;;11.40;9.68;;;;;;;13.46;80.84;99521.63;5071644;28;20039;-66
2023/04/24 03:14:15;;;;;;;11.60;9.18;;;;;;;13.52;80.93;99534.41;5072443;28;20127;-66
2023/04/24 03:16:40;;;;;;;11.55;9.50;;;;;;;13.47;80.93;99537.63;5074315;28;20519;-65
2023/04/24 03:19:06;;;;;;;12.95;10.00;;;;;;;13.46;83.17;99532.41;5072279;28;20043;-66
2023/04/24 03:21:32;;;;;;;13.18;10.13;;;;;;;13.33;81.84;99508.72;5074902;28;20661;-66
2023/04/24 03:23:58;;;;;;;11.02;9.40;;;;;;;13.43;81.36;99528.22;5077847;28;20029;-66
2023/04/24 03:26:23;;;;;;;11.82;10.05;;;;;;;13.45;81.82;99536.94;5074876;28;20048;-66
2023/04/24 03:28:49;;;;;;;14.00;9.77;;;;;;;13.42;81.95;99533.78;5052035;28;20024;-66
2023/04/24 03:31:15;;;;;;;12.93;10.38;;;;;;;13.42;82.36;99534.59;5070410;28;20120;-66
2023/04/24 03:33:40;;;;;;;21.63;10.10;;;;;;;13.37;82.08;99522.66;5071116;28;20365;-66
2023/04/24 03:36:06;;;;;;;11.73;10.10;;;;;;;13.38;82.01;99527.88;5070082;28;20032;-66
2023/04/24 03:38:32;;;;;;;12.13;10.25;;;;;;;13.31;82.48;99524.19;5070348;28;20072;-66
2023/04/24 03:40:57;;;;;;;12.98;10.65;;;;;;;13.42;82.96;99558.00;5070133;28;20032;-65
2023/04/24 03:43:22;;;;;;;12.13;10.32;;;;;;;13.32;83.82;99535.81;5069758;28;20025;-66
2023/04/24 03:45:48;;;;;;;12.52;9.95;;;;;;;13.28;84.31;99535.31;5053396;28;20024;-66
2023/04/24 03:48:13;;;;;;;13.13;10.57;;;;;;;13.51;85.09;99581.22;5070720;28;20059;-66
2023/04/24 03:50:39;;;;;;;13.32;10.43;;;;;;;13.38;86.37;99575.50;5070136;28;20520;-66
2023/04/24 03:53:05;;;;;;;13.70;10.75;;;;;;;13.43;87.70;99589.31;5072183;28;20047;-66
2023/04/24 03:55:30;;;;;;;12.73;10.48;;;;;;;13.39;88.96;99579.91;5070416;28;20094;-66
2023/04/24 03:57:55;;;;;;;15.65;11.35;;;;;;;13.20;89.99;99554.19;5052661;28;20097;-66
2023/04/24 04:00:21;;;;;;;14.95;11.68;;;;;;;13.23;91.64;99547.59;5052361;28;20043;-63
2023/04/24 04:02:46;;;;;;;13.55;11.88;;;;;;;13.35;91.59;99565.91;5070481;28;20113;-62
2023/04/24 04:05:12;;;;;;;14.10;12.02;;;;;;;13.36;92.77;99574.84;5070097;28;20029;-62
2023/04/24 04:07:37;;;;;;;13.07;11.68;;;;;;;13.21;92.94;99549.59;5070181;28;20028;-62
2023/04/24 04:10:03;;;;;;;14.30;11.80;;;;;;;13.31;94.27;99572.66;5070415;28;20112;-62
2023/04/24 04:12:29;;;;;;;14.00;12.25;;;;;;;13.32;95.99;99578.91;5071348;28;20082;-62
2023/04/24 04:14:54;;;;;;;14.68;11.43;;;;;;;13.30;95.92;99568.31;5070526;28;20485;-62
2023/04/24 04:17:20;;;;;;;15.43;11.98;;;;;;;13.27;95.73;99570.47;5078571;28;20530;-62
2023/04/24 04:40:06;;;;;;;15.65;12.65;;;;;;;13.11;95.93;99541.72;5128785;27;20398;-62
2023/04/24 04:42:33;;;;;;;14.77;11.98;;;;;;;13.19;97.04;99559.72;5128951;27;20039;-61
2023/04/24 04:44:59;;;;;;;15.25;11.40;;;;;;;13.21;97.72;99555.00;5128716;27;20031;-61
2023/04/24 04:47:26;;;;;;;15.43;11.95;;;;;;;13.22;97.15;99544.06;5127290;28;20028;-62
2023/04/24 04:49:51;;;;;;;14.60;11.05;;;;;;;13.20;96.01;99534.47;5127815;27;20485;-62
2023/04/24 04:52:18;;;;;;;17.17;11.18;;;;;;;13.28;95.05;99558.69;5127545;27;20027;-61
2023/04/24 04:54:43;;;;;;;13.70;11.43;;;;;;;13.29;95.80;99555.00;5126547;28;20066;-61
2023/04/24 04:57:10;;;;;;;12.27;10.55;;;;;;;13.31;94.75;99558.34;5128483;27;20059;-62
2023/04/24 04:59:35;;;;;;;15.65;11.63;;;;;;;13.26;94.83;99542.69;5128241;27;20114;-61
2023/04/24 05:02:00;;;;;;;16.85;11.82;;;;;;;13.33;94.53;99548.25;5128945;27;20134;-61
2023/04/24 05:04:26;;;;;;;14.45;11.82;;;;;;;13.33;94.63;99548.25;5128714;27;20024;-62
2023/04/24 05:06:52;;;;;;;16.15;12.50;;;;;;;13.30;94.71;99535.13;5128451;27;20038;-62
2023/04/24 05:09:18;;;;;;;19.00;13.50;;;;;;;13.35;95.57;99544.38;5128348;27;20059;-61
2023/04/24 05:11:44;;;;;;;12.13;10.73;;;;;;;13.43;94.69;99551.59;5128072;27;20446;-61
2023/04/24 05:14:09;;;;;;;13.93;11.90;;;;;;;13.31;95.18;99521.50;5126669;27;20062;-61
2023/04/24 05:16:36;;;;;;;16.05;11.23;;;;;;;13.46;95.38;99546.72;5128108;27;20027;-61
2023/04/24 05:19:02;;;;;;;12.93;11.15;;;;;;;13.49;94.62;99537.44;5126725;27;20443;-62
2023/04/24 05:21:27;;;;;;;15.88;12.13;;;;;;;13.52;93.89;99539.81;5128097;27;20106;-62
2023/04/24 05:23:53;;;;;;;17.77;11.82;;;;;;;13.48;92.81;99530.41;5126770;27;20028;-61
2023/04/24 05:26:19;;;;;;;12.68;10.93;;;;;;;13.60;91.93;99550.53;5127809;27;20023;-61
2023/04/24 05:28:45;;;;;;;11.80;10.13;;;;;;;13.61;91.98;99541.47;5127618;27;20051;-61
2023/04/24 05:31:12;;;;;;;18.13;11.45;;;;;;;13.60;92.16;99537.06;5127889;27;20030;-62
2023/04/24 05:33:37;;;;;;;13.13;11.35;;;;;;;13.65;91.68;99549.00;5126534;27;20425;-62
2023/04/24 05:36:03;;;;;;;13.20;11.13;;;;;;;13.70;90.31;99546.66;5127422;27;20080;-62
2023/04/24 05:38:28;;;;;;;13.85;10.50;;;;;;;13.66;90.56;99531.00;5126054;28;20104;-61
2023/04/24 05:40:54;;;;;;;13.38;10.88;;;;;;;13.84;89.87;99542.41;5114531;28;20032;-62
2023/04/24 05:43:19;;;;;;;13.52;10.48;;;;;;;13.90;90.00;99552.50;5113434;28;20023;-62
2023/04/24 05:45:45;;;;;;;14.20;11.15;;;;;;;13.81;89.45;99526.56;5113694;27;20041;-61
2023/04/24 05:48:10;;;;;;;14.35;10.93;;;;;;;13.96;88.71;99546.38;5113838;28;20453;-61
2023/04/24 05:50:36;;;;;;;13.52;9.88;;;;;;;14.00;88.76;99546.88;5112313;28;20368;-61
2023/04/24 05:53:02;;;;;;;12.18;10.77;;;;;;;14.07;87.78;99548.69;5113668;28;20047;-62
2023/04/24 05:55:27;;;;;;;11.80;10.55;;;;;;;14.10;87.91;99559.13;5113252;27;20031;-62
2023/04/24 05:57:53;;;;;;;11.30;9.95;;;;;;;14.11;87.89;99544.63;5113456;28;20471;-62
2023/04/24 06:00:20;;;;;;;16.02;11.35;;;;;;;14.23;88.07;99564.00;5111849;28;20483;-61
2023/04/24 06:02:46;;;;;;;14.90;10.50;;;;;;;14.25;87.30;99564.66;5113032;28;20023;-62
2023/04/24 06:05:11;;;;;;;13.00;10.35;;;;;;;14.22;87.13;99546.94;5113030;28;20028;-61
2023/04/24 06:07:37;;;;;;;11.48;10.25;;;;;;;14.25;88.45;99561.97;5112969;28;20019;-62
2023/04/24 06:10:03;;;;;;;12.35;10.05;;;;;;;14.28;88.42;99559.75;5107043;28;20040;-61
2023/04/24 06:12:28;;;;;;;13.90;10.70;;;;;;;14.25;87.87;99554.69;5110146;28;20079;-61
2023/04/24 06:14:55;;;;;;;12.45;10.68;;;;;;;14.28;87.63;99551.66;5111587;28;20028;-61
2023/04/24 06:17:21;;;;;;;12.50;10.32;;;;;;;14.28;88.83;99554.34;5112043;28;20480;-61
2023/04/24 06:19:46;;;;;;;14.07;11.18;;;;;;;14.27;88.35;99562.63;5112225;28;20047;-62
2023/04/24 06:22:12;;;;;;;12.45;10.52;;;;;;;14.25;88.58;99557.41;5110860;28;20039;-61
2023/04/24 06:24:37;;;;;;;14.20;10.27;;;;;;;14.28;89.15;99567.00;5111820;28;20078;-61
2023/04/24 06:27:03;;;;;;;13.40;10.23;;;;;;;14.22;90.21;99565.81;5111652;28;20051;-61
2023/04/24 06:29:28;;;;;;;11.95;10.60;;;;;;;14.18;89.82;99544.78;5137232;27;20028;-61
2023/04/24 06:31:54;;;;;;;13.68;10.05;;;;;;;14.21;89.87;99550.66;5112708;28;20044;-61
2023/04/24 06:34:19;;;;;;;13.57;10.93;;;;;;;14.21;89.60;99547.94;5111387;28;20075;-62
2023/04/24 06:36:46;;;;;;;11.93;10.68;;;;;;;14.15;90.01;99545.94;5112500;28;20015;-61
2023/04/24 06:39:12;;;;;;;13.95;11.73;;;;;;;14.12;91.15;99540.91;5112090;28;20050;-62
2023/04/24 06:41:37;;;;;;;12.75;10.68;;;;;;;14.09;91.89;99540.44;5112491;28;20023;-62
2023/04/24 06:44:03;;;;;;;16.75;12.27;;;;;;;13.92;92.17;99509.16;5112409;28;20023;-61
2023/04/24 06:46:28;;;;;;;17.70;12.18;;;;;;;14.13;92.23;99550.69;5112281;28;20027;-61
2023/04/24 06:48:55;;;;;;;12.10;10.32;;;;;;;14.12;92.34;99561.66;5112530;28;20593;-61
2023/04/24 06:51:23;;;;;;;16.83;11.75;;;;;;;14.17;93.23;99579.00;5111461;28;20149;-61
2023/04/24 06:53:49;;;;;;;14.55;12.15;;;;;;;14.11;93.81;99559.97;5112717;28;20580;-63
2023/04/24 06:56:15;;;;;;;12.93;11.40;;;;;;;14.14;94.70;99557.75;5110475;28;20028;-62
2023/04/24 06:58:40;;;;;;;15.48;12.00;;;;;;;14.12;94.25;99561.66;5110987;28;20136;-62
2023/04/24 07:01:06;;;;;;;17.92;11.98;;;;;;;14.22;94.38;99582.00;5109972;28;20369;-62
2023/04/24 07:03:31;;;;;;;14.23;12.23;;;;;;;14.22;94.70;99568.50;5111300;28;20022;-61
2023/04/24 07:05:57;;;;;;;13.82;12.25;;;;;;;14.27;95.09;99566.16;5105513;28;20027;-62
2023/04/24 07:08:23;;;;;;;13.80;11.18;;;;;;;14.20;94.23;99554.38;5105617;28;20098;-62
2023/04/24 07:10:50;;;;;;;18.63;13.30;;;;;;;14.26;93.80;99567.19;5102570;28;20209;-61
2023/04/24 07:13:16;;;;;;;16.08;12.50;;;;;;;14.24;95.16;99553.03;5109218;28;20023;-62
2023/04/24 07:15:41;;;;;;;17.13;13.43;;;;;;;14.25;95.01;99552.00;5109455;28;20030;-61
2023/04/24 07:18:07;;;;;;;16.60;12.68;;;;;;;14.30;94.39;99560.41;5111105;28;20546;-62
2023/04/24 07:20:33;;;;;;;16.70;12.45;;;;;;;14.30;93.68;99557.72;5111339;28;20047;-62
2023/04/24 07:22:58;;;;;;;17.13;12.77;;;;;;;14.17;93.27;99525.06;5111235;28;20031;-61
2023/04/24 07:25:24;;;;;;;17.98;13.35;;;;;;;14.27;93.09;99536.50;5110465;28;20039;-61
2023/04/24 07:27:49;;;;;;;15.15;12.27;;;;;;;14.22;93.13;99532.63;5109978;28;20024;-61
2023/04/24 07:30:15;;;;;;;14.00;12.52;;;;;;;14.36;93.12;99558.88;5110943;27;20119;-61
2023/04/24 07:32:40;;;;;;;18.20;11.88;;;;;;;14.40;93.23;99555.63;5110961;28;20046;-61
2023/04/24 07:35:06;;;;;;;13.50;12.07;;;;;;;14.45;93.75;99545.13;5110802;28;20479;-61
2023/04/24 07:37:32;;;;;;;18.08;12.80;;;;;;;14.52;92.39;99537.19;5109398;28;20043;-62
2023/04/24 07:39:57;;;;;;;18.58;12.75;;;;;;;14.49;93.04;99565.38;5110199;28;20055;-61
2023/04/24 07:42:23;;;;;;;14.23;12.65;;;;;;;14.57;93.93;99581.50;5110507;28;20035;-61
2023/04/24 07:44:48;;;;;;;14.95;13.30;;;;;;;14.60;94.13;99589.25;5110622;28;20028;-61
2023/04/24 07:47:17;;;;;;;16.65;13.40;;;;;;;14.68;94.32;99581.13;5109794;28;20042;-62
2023/04/24 07:49:42;;;;;;;17.80;13.85;;;;;;;14.70;95.35;99562.84;5109141;28;20107;-62
2023/04/24 07:52:08;;;;;;;17.70;13.57;;;;;;;14.64;96.47;99541.97;5110513;28;20027;-62
2023/04/24 07:54:33;;;;;;;15.57;13.05;;;;;;;14.75;96.42;99559.63;5109730;28;20749;-61
2023/04/24 07:57:00;;;;;;;15.00;13.40;;;;;;;14.73;96.26;99559.81;5109918;28;20114;-62
2023/04/24 07:59:26;;;;;;;16.10;13.50;;;;;;;14.66;97.22;99539.09;5110308;28;20031;-62
2023/04/24 08:01:51;;;;;;;16.63;13.07;;;;;;;14.74;97.69;99544.47;5108832;28;20371;-63
2023/04/24 08:04:17;;;;;;;19.58;13.05;;;;;;;14.74;97.42;99557.97;5110199;28;20098;-62
2023/04/24 08:06:43;;;;;;;17.65;12.95;;;;;;;14.72;97.09;99550.03;5109855;28;20054;-62
2023/04/24 08:09:09;;;;;;;24.08;14.73;;;;;;;14.72;97.66;99551.88;5110022;28;20554;-62
2023/04/24 08:11:35;;;;;;;20.10;13.82;;;;;;;14.72;98.36;99551.88;5109949;28;20039;-62
2023/04/24 08:14:00;;;;;;;21.02;14.30;;;;;;;14.77;98.76;99563.81;5110411;28;20027;-61
2023/04/24 08:16:26;;;;;;;19.27;14.77;;;;;;;14.76;99.31;99553.19;5110286;28;20043;-62
2023/04/24 08:18:53;;;;;;;19.13;14.02;;;;;;;14.76;99.81;99564.84;5108835;28;20566;-62
2023/04/24 08:21:19;;;;;;;18.45;14.63;;;;;;;14.71;100.00;99547.50;5110187;28;20027;-62
2023/04/24 08:23:45;;;;;;;16.52;14.02;;;;;;;14.78;99.80;99570.91;5108545;28;20047;-62
2023/04/24 08:26:11;;;;;;;17.45;14.27;;;;;;;14.85;100.00;99571.88;5109485;28;20016;-62
2023/04/24 08:28:37;;;;;;;17.90;14.75;;;;;;;14.89;100.00;99575.88;5109459;28;20031;-62
2023/04/24 08:31:03;;;;;;;17.13;14.00;;;;;;;14.94;100.00;99569.94;5108790;28;20035;-62
2023/04/24 08:33:33;;;;;;;16.20;12.57;;;;;;;15.10;98.27;99569.81;5109918;28;20526;-63
2023/04/24 08:36:03;;;;;;;18.23;13.88;;;;;;;15.05;99.21;99558.72;5107826;28;20049;-62
2023/04/24 08:38:29;;;;;;;19.27;14.00;;;;;;;15.08;99.35;99563.75;5102735;28;20070;-61
2023/04/24 08:40:56;;;;;;;15.85;13.85;;;;;;;15.12;99.75;99565.91;5106353;28;20023;-62
2023/04/24 08:43:22;;;;;;;18.20;14.50;;;;;;;15.15;99.35;99552.03;5108555;28;20098;-61
2023/04/24 08:45:48;;;;;;;20.88;14.32;;;;;;;15.19;98.86;99557.94;5099415;28;20118;-62
2023/04/24 08:48:14;;;;;;;18.33;13.95;;;;;;;15.16;98.22;99553.72;5108131;28;20114;-62
2023/04/24 08:50:44;;;;;;;18.15;14.48;;;;;;;15.26;97.91;99557.00;5108014;28;20602;-61
2023/04/24 08:53:10;;;;;;;17.50;15.30;;;;;;;15.31;98.50;99554.59;5106946;28;20034;-62
2023/04/24 08:55:38;;;;;;;17.08;14.60;;;;;;;15.37;97.92;99550.34;5109194;28;20123;-62
2023/04/24 08:58:04;;;;;;;20.13;12.57;;;;;;;15.46;97.84;99551.94;5107997;28;20088;-62
2023/04/24 09:00:30;;;;;;;17.95;14.75;;;;;;;15.52;96.92;99556.63;5099168;28;20044;-62
2023/04/24 09:02:56;;;;;;;19.92;16.63;;;;;;;15.61;97.39;99550.13;5103800;28;20421;-62
2023/04/24 09:05:25;;;;;;;22.05;15.15;;;;;;;15.65;97.93;99554.13;5104095;28;20031;-62
2023/04/24 09:07:55;;;;;;;18.30;14.15;;;;;;;15.73;98.13;99554.88;5106378;28;20065;-62
2023/04/24 09:10:23;;;;;;;16.67;14.45;;;;;;;15.82;98.29;99548.34;5108380;28;20063;-62
2023/04/24 09:12:51;;;;;;;14.75;11.90;;;;;;;15.93;97.83;99549.75;5100586;28;20022;-62
2023/04/24 09:15:16;;;;;;;14.20;12.13;;;;;;;16.10;96.23;99548.53;5103619;28;20024;-62
2023/04/24 09:17:43;;;;;;;13.05;11.55;;;;;;;16.23;94.82;99545.97;5110750;27;20480;-62
2023/04/24 09:20:09;;;;;;;13.23;11.50;;;;;;;16.24;93.43;99514.31;5111408;28;20057;-62
2023/04/24 09:22:34;;;;;;;15.38;10.40;;;;;;;16.57;91.65;99542.66;5111676;28;20032;-62
2023/04/24 09:25:06;;;;;;;9.68;8.63;;;;;;;16.70;89.77;99540.91;5111172;28;20028;-63
2023/04/24 09:27:33;;;;;;;9.60;7.70;;;;;;;16.89;88.39;99545.69;5104681;28;20448;-62
2023/04/24 09:29:58;;;;;;;10.98;7.18;;;;;;;17.07;85.95;99534.41;5107227;28;20031;-62
2023/04/24 09:32:25;;;;;;;12.07;7.82;;;;;;;17.32;82.78;99541.09;5107116;27;20427;-62
2023/04/24 09:35:10;;;;;;;8.55;7.03;;;;;;;17.59;81.56;99543.81;5102070;28;20031;-61
2023/04/24 09:37:37;;;;;;;13.70;7.63;;;;;;;17.83;79.41;99545.22;5100883;28;20036;-61
2023/04/24 09:40:13;;;;;;;14.05;8.98;;;;;;;18.19;75.74;99554.00;5104344;28;20039;-61
2023/04/24 09:42:39;;;;;;;10.18;8.98;;;;;;;18.28;75.50;99531.03;5103351;28;20024;-62
2023/04/24 09:45:10;;;;;;;11.40;9.43;;;;;;;18.47;75.68;99546.59;5112137;28;20031;-61
2023/04/24 09:47:39;;;;;;;11.98;9.18;;;;;;;18.56;74.89;99547.25;5107403;28;20034;-63
2023/04/24 09:50:12;;;;;;;15.00;8.68;;;;;;;18.59;74.26;99542.25;5098319;28;20441;-62
2023/04/24 09:52:45;;;;;;;11.05;9.40;;;;;;;18.66;73.55;99531.41;5116117;27;20459;-62
2023/04/24 09:55:20;;;;;;;10.73;9.52;;;;;;;18.61;73.72;99521.19;5109777;27;20023;-62
2023/04/24 09:57:57;;;;;;;13.63;9.02;;;;;;;18.69;74.40;99529.13;5116923;27;20027;-61
2023/04/24 10:00:30;;;;;;;10.63;9.63;;;;;;;18.71;73.57;99535.19;5101642;28;21218;-62
2023/04/24 10:03:02;;;;;;;10.15;8.82;;;;;;;18.74;72.49;99534.78;5109210;28;20019;-62
2023/04/24 10:05:38;;;;;;;12.88;9.00;;;;;;;18.75;71.48;99532.88;5101232;28;20054;-62
2023/04/24 10:08:11;;;;;;;9.23;7.55;;;;;;;18.76;70.81;99534.59;5121245;27;20027;-62
2023/04/24 10:10:42;;;;;;;9.07;7.85;;;;;;;18.72;69.55;99530.56;5111240;28;20039;-63
2023/04/24 10:13:09;;;;;;;10.85;7.88;;;;;;;18.74;69.82;99533.94;5110965;28;20035;-63
2023/04/24 10:15:35;;;;;;;10.25;7.72;;;;;;;18.70;68.42;99522.63;5109811;28;20031;-62
2023/04/24 10:18:00;;;;;;;9.25;7.13;;;;;;;18.61;68.85;99526.59;5110239;28;20023;-62
2023/04/24 10:20:29;;;;;;;12.55;7.40;;;;;;;18.64;68.39;99545.19;5111715;28;20039;-62
2023/04/24 10:22:57;;;;;;;9.93;7.20;;;;;;;18.58;68.37;99535.16;5111507;27;20027;-62
2023/04/24 10:25:28;;;;;;;7.80;6.65;;;;;;;18.58;67.78;99532.44;5111700;28;20448;-63
2023/04/24 10:27:57;;;;;;;11.00;6.95;;;;;;;18.50;68.12;99535.34;5111569;28;20024;-61
2023/04/24 10:30:23;;;;;;;9.65;6.43;;;;;;;18.48;68.63;99525.72;5111683;28;20027;-62
2023/04/24 10:32:48;;;;;;;7.85;5.93;;;;;;;18.51;68.47;99528.84;5111130;28;20036;-61
2023/04/24 10:35:15;;;;;;;8.07;6.22;;;;;;;18.51;68.30;99526.13;5111566;28;20083;-62
2023/04/24 10:37:48;;;;;;;7.90;6.63;;;;;;;18.30;67.44;99498.25;5109769;28;20039;-61
2023/04/24 10:40:19;;;;;;;9.95;6.15;;;;;;;18.42;67.39;99526.53;5111590;28;20040;-62
2023/04/24 10:42:51;;;;;;;7.35;6.10;;;;;;;18.43;67.53;99530.91;5109831;28;20129;-62
2023/04/24 10:45:20;;;;;;;8.00;6.75;;;;;;;18.31;67.37;99511.63;5111122;28;20677;-61
2023/04/24 10:48:01;;;;;;;8.07;6.55;;;;;;;18.37;68.36;99527.13;5111133;28;20095;-62
2023/04/24 10:50:28;;;;;;;10.45;6.78;;;;;;;18.15;68.56;99479.41;5111475;28;20053;-61
2023/04/24 10:53:04;;;;;;;9.07;6.80;;;;;;;18.42;69.12;99518.38;5111007;28;20024;-62
2023/04/24 10:55:44;;;;;;;9.68;6.90;;;;;;;18.37;69.42;99510.00;5111225;28;20028;-61
2023/04/24 10:58:10;;;;;;;8.32;5.95;;;;;;;18.46;68.33;99515.06;5111332;28;20041;-62
2023/04/24 11:00:40;;;;;;;6.85;5.63;;;;;;;18.40;68.29;99510.44;5109722;28;20494;-61
2023/04/24 11:03:21;;;;;;;8.70;5.25;;;;;;;18.35;68.07;99493.06;5111039;28;20562;-61
2023/04/24 11:05:57;;;;;;;6.75;5.50;;;;;;;18.60;68.25;99524.91;5110375;28;20089;-62
2023/04/24 11:08:31;;;;;;;8.95;5.18;;;;;;;18.78;67.01;99516.19;5110927;28;20016;-61
2023/04/24 11:11:15;;;;;;;12.05;4.85;;;;;;;18.81;66.76;99521.19;5094094;28;20360;-61
2023/04/24 11:13:55;;;;;;;8.60;4.10;;;;;;;18.88;66.49;99516.59;5100474;28;20041;-61
2023/04/24 11:16:21;;;;;;;5.68;4.05;;;;;;;18.95;65.95;99529.16;5110758;28;20019;-61
2023/04/24 11:18:53;;;;;;;7.00;4.03;;;;;;;19.03;64.28;99523.53;5109029;28;20072;-63
2023/04/24 11:21:20;;;;;;;5.60;3.30;;;;;;;19.09;63.01;99525.41;5110857;28;20532;-62
2023/04/24 11:23:46;;;;;;;4.28;2.97;;;;;;;19.13;62.72;99514.97;5109281;28;20032;-61
2023/04/24 11:26:16;;;;;;;2.92;2.10;;;;;;;19.20;61.14;99513.06;5110910;28;20039;-61
2023/04/24 11:28:49;;;;;;;4.43;1.77;;;;;;;19.22;61.11;99528.13;5110465;28;20035;-61
2023/04/24 11:31:37;;;;;;;2.38;1.88;;;;;;;19.33;60.61;99530.28;5110472;28;20035;-61
2023/04/24 11:34:21;;;;;;;1.52;1.42;;;;;;;19.28;60.33;99526.50;5110762;28;20024;-61
2023/04/24 11:36:47;;;;;;;2.90;1.70;;;;;;;19.19;58.72;99512.22;5110101;28;20020;-61
2023/04/24 11:39:14;;;;;;;3.88;2.28;;;;;;;19.24;58.36;99515.16;5108388;28;20046;-61
2023/04/24 11:41:39;;;;;;;3.55;2.15;;;;;;;19.23;58.51;99512.66;5109430;28;20075;-61